Terminal Aerodrome Forecast
Issued by NWS Twin Cities, MN

Home | Current Version | Previous Version | Graphics & Text | Print | Product List | Glossary On
Versions: 1 2 3 4 5 6 7 8 9 10 11 12 13 14 15 16 17
000
FTUS43 KMPX 021720
TAFSTC
TAF
KSTC 021720Z 0218/0318 19010KT P6SM FEW250
     FM030100 16006KT P6SM SCT150
     FM031100 16005KT P6SM VCSH SCT040 BKN080 PROB30 0314/0318 5SM
      SHRA BKN040=

USA.gov is the U.S. government's official web portal to all federal, state and local government web resources and services.